Time;durP1;ratioP1;P1;durP2;ratioP2;P2;SDS_P1;SDS_P2;PMS_P1;PMS_P2;Temp;Humidity;BMP_temperature;BMP_pressure;BME280_temperature;BME280_humidity;BME280_pressure;Samples;Min_cycle;Max_cycle;Signal;HPM_P1;HPM_P2
2023/04/21 00:01:48;;;;;;;17.58;6.15;;;;;;;11.61;78.90;101274.63;5012316;28;20148;-72
2023/04/21 00:04:16;;;;;;;15.35;7.18;;;;;;;11.57;79.14;101277.50;5022427;28;20096;-74
2023/04/21 00:06:44;;;;;;;13.45;5.93;;;;;;;11.55;79.38;101282.88;5007665;28;20501;-73
2023/04/21 00:09:42;;;;;;;29.23;7.78;;;;;;;11.52;79.38;101280.38;5013590;28;20029;-74
2023/04/21 00:12:09;;;;;;;13.55;5.72;;;;;;;11.47;79.42;101284.19;5027047;28;20041;-74
2023/04/21 00:14:38;;;;;;;28.75;6.90;;;;;;;11.44;79.49;101285.22;5026064;28;20835;-74
2023/04/21 00:17:06;;;;;;;23.35;6.97;;;;;;;11.39;80.21;101276.69;5003024;28;20049;-74
2023/04/21 00:19:34;;;;;;;17.17;6.35;;;;;;;11.35;79.94;101277.78;5011902;28;20084;-75
2023/04/21 00:22:03;;;;;;;14.10;6.97;;;;;;;11.30;80.14;101279.78;5031077;28;20136;-75
2023/04/21 00:24:30;;;;;;;14.45;6.88;;;;;;;11.25;80.02;101279.19;5029633;28;20092;-73
2023/04/21 00:26:57;;;;;;;22.20;6.55;;;;;;;11.22;80.14;101282.84;5023377;28;20121;-74
2023/04/21 00:29:25;;;;;;;25.08;7.43;;;;;;;11.18;80.42;101278.66;5011923;28;20126;-73
2023/04/21 00:31:52;;;;;;;15.57;6.43;;;;;;;11.14;80.48;101277.94;5000667;28;20513;-73
2023/04/21 00:34:20;;;;;;;19.77;7.10;;;;;;;11.09;80.73;101273.84;5031108;28;20509;-74
2023/04/21 00:36:47;;;;;;;32.35;8.43;;;;;;;11.06;80.76;101274.84;5036399;28;20144;-73
2023/04/21 00:39:14;;;;;;;19.40;6.53;;;;;;;11.03;80.96;101271.50;5033413;28;20131;-73
2023/04/21 00:41:42;;;;;;;15.57;6.75;;;;;;;11.01;80.89;101268.09;5033982;28;20093;-72
2023/04/21 00:44:09;;;;;;;15.25;7.50;;;;;;;11.00;80.98;101261.16;5008661;28;20034;-72
2023/04/21 00:46:37;;;;;;;20.20;7.53;;;;;;;10.96;80.68;101263.06;5007012;28;20045;-73
2023/04/21 00:49:06;;;;;;;15.88;6.93;;;;;;;10.96;80.60;101264.84;5019377;28;20095;-72
2023/04/21 00:51:35;;;;;;;13.93;7.05;;;;;;;10.94;80.63;101262.28;5009208;28;20054;-73
2023/04/21 00:54:04;;;;;;;13.73;7.70;;;;;;;10.92;80.47;101261.53;5008652;28;20053;-73
2023/04/21 00:56:33;;;;;;;23.45;8.43;;;;;;;10.89;80.45;101259.88;5029795;28;20156;-73
2023/04/21 00:59:02;;;;;;;16.55;7.65;;;;;;;10.87;80.50;101258.28;5023674;28;20152;-74
2023/04/21 01:01:30;;;;;;;16.92;7.65;;;;;;;10.85;80.50;101249.56;5011777;28;20053;-74
2023/04/21 01:03:59;;;;;;;22.30;8.02;;;;;;;10.82;80.45;101258.50;5011661;28;20057;-73
2023/04/21 01:06:28;;;;;;;19.30;7.97;;;;;;;10.79;80.32;101250.75;4993223;28;20482;-73
2023/04/21 01:08:55;;;;;;;14.82;8.00;;;;;;;10.79;80.06;101249.88;4998365;28;20073;-73
2023/04/21 01:11:22;;;;;;;23.50;9.18;;;;;;;10.77;79.87;101242.06;5023015;28;20068;-73
2023/04/21 01:13:53;;;;;;;23.25;8.18;;;;;;;10.82;79.72;101255.88;5010360;28;20076;-73
2023/04/21 01:16:22;;;;;;;14.27;7.85;;;;;;;10.87;79.16;101250.38;5027005;28;20121;-74
2023/04/21 01:18:52;;;;;;;12.70;8.52;;;;;;;10.84;78.54;101248.72;5018922;28;20045;-73
2023/04/21 01:21:20;;;;;;;20.35;8.90;;;;;;;10.83;78.41;101251.44;5005194;28;20084;-72
2023/04/21 01:23:48;;;;;;;12.80;8.57;;;;;;;10.81;78.27;101251.53;5001949;28;20207;-73
2023/04/21 01:26:20;;;;;;;15.13;8.00;;;;;;;10.77;78.17;101255.25;5025989;28;20079;-74
2023/04/21 01:28:47;;;;;;;19.70;9.15;;;;;;;10.78;77.61;101248.19;4976970;28;20080;-73
2023/04/21 01:31:15;;;;;;;14.32;7.78;;;;;;;10.75;77.83;101246.56;4999705;28;20073;-74
2023/04/21 01:33:44;;;;;;;17.35;8.85;;;;;;;10.74;77.89;101244.00;5029889;28;20120;-72
2023/04/21 01:36:11;;;;;;;20.13;8.60;;;;;;;10.77;77.38;101233.31;5029289;28;20057;-73
2023/04/21 01:38:39;;;;;;;15.07;8.25;;;;;;;10.77;77.15;101242.06;5013113;28;20726;-73
2023/04/21 01:41:08;;;;;;;16.70;8.43;;;;;;;10.75;77.14;101243.91;5006639;28;20057;-74
2023/04/21 01:43:38;;;;;;;14.15;8.88;;;;;;;10.72;76.91;101240.59;5023686;28;20060;-74
2023/04/21 01:46:06;;;;;;;23.33;9.10;;;;;;;10.67;76.80;101242.59;5026622;28;20053;-73
2023/04/21 01:48:35;;;;;;;19.38;9.00;;;;;;;10.64;77.15;101230.44;5000611;28;20091;-73
2023/04/21 01:51:03;;;;;;;15.88;8.32;;;;;;;10.64;76.89;101239.19;5014005;28;20132;-73
2023/04/21 01:53:30;;;;;;;19.08;9.50;;;;;;;10.59;76.67;101235.94;5019423;28;20045;-73
2023/04/21 01:55:57;;;;;;;17.30;9.60;;;;;;;10.57;76.55;101227.25;5024248;28;20121;-72
2023/04/21 01:58:25;;;;;;;18.75;7.93;;;;;;;10.54;76.52;101237.94;5022877;28;20617;-74
2023/04/21 02:00:52;;;;;;;17.25;10.02;;;;;;;10.52;76.42;101229.25;5014913;28;20140;-72
2023/04/21 02:03:19;;;;;;;15.35;9.23;;;;;;;10.49;76.47;101229.44;5016570;28;20236;-73
2023/04/21 02:05:49;;;;;;;15.13;8.68;;;;;;;10.47;76.55;101219.88;5027019;28;20041;-73
2023/04/21 02:08:19;;;;;;;16.40;9.00;;;;;;;10.47;76.13;101226.00;5002565;28;20091;-72
2023/04/21 02:11:12;;;;;;;14.73;9.23;;;;;;;10.46;76.35;101228.72;5012305;28;20416;-72
2023/04/21 02:13:40;;;;;;;17.73;8.60;;;;;;;10.44;76.09;101218.25;5024683;28;20067;-74
2023/04/21 02:16:08;;;;;;;16.50;8.60;;;;;;;10.47;76.27;101219.88;5008259;28;20211;-72
2023/04/21 02:18:43;;;;;;;15.45;8.20;;;;;;;10.47;75.50;101226.00;5020744;28;20038;-73
2023/04/21 02:21:10;;;;;;;12.75;7.97;;;;;;;10.48;75.74;101222.44;4995589;28;20519;-74
2023/04/21 02:23:38;;;;;;;11.98;7.60;;;;;;;10.51;75.48;101219.66;5017784;28;20053;-73
2023/04/21 02:26:05;;;;;;;15.68;8.93;;;;;;;10.48;75.00;101211.91;5021052;28;20041;-73
2023/04/21 02:28:32;;;;;;;19.38;9.77;;;;;;;10.46;74.99;101220.81;4998724;28;20053;-74
2023/04/21 02:30:59;;;;;;;17.13;9.27;;;;;;;10.45;74.98;101217.34;5007572;28;20049;-73
2023/04/21 02:33:27;;;;;;;14.38;8.25;;;;;;;10.43;74.85;101219.19;5003249;28;21448;-73
2023/04/21 02:35:54;;;;;;;15.23;9.30;;;;;;;10.41;74.84;101223.69;5005339;28;20141;-72
2023/04/21 02:38:21;;;;;;;14.73;8.90;;;;;;;10.38;74.87;101223.81;5008977;28;20153;-73
2023/04/21 02:40:49;;;;;;;21.45;9.10;;;;;;;10.34;74.86;101222.25;5021407;28;20061;-74
2023/04/21 02:43:17;;;;;;;15.82;9.60;;;;;;;10.30;74.85;101220.69;5027976;28;20073;-75
2023/04/21 02:45:45;;;;;;;15.75;10.20;;;;;;;10.27;75.05;101223.50;5011949;28;20072;-74
2023/04/21 02:48:12;;;;;;;16.55;10.07;;;;;;;10.25;74.79;101222.69;5022013;28;20107;-72
2023/04/21 02:50:41;;;;;;;17.58;11.15;;;;;;;10.22;75.09;101218.44;5028218;28;20506;-71
2023/04/21 02:53:09;;;;;;;16.02;10.00;;;;;;;10.22;74.91;101218.44;5017155;28;20065;-74
2023/04/21 02:55:36;;;;;;;17.52;11.43;;;;;;;10.21;74.71;101219.31;5013668;28;20053;-73
2023/04/21 02:58:03;;;;;;;24.67;12.65;;;;;;;10.19;74.69;101217.72;5013743;28;20053;-73
2023/04/21 03:00:31;;;;;;;19.13;13.32;;;;;;;10.17;74.92;101223.03;5000273;28;20053;-72
2023/04/21 03:02:58;;;;;;;22.15;12.55;;;;;;;10.19;75.00;101217.72;5017413;28;20044;-73
2023/04/21 03:05:26;;;;;;;23.45;14.25;;;;;;;10.15;74.63;101211.75;5043556;28;20088;-74
2023/04/21 03:07:54;;;;;;;33.10;14.85;;;;;;;10.11;74.62;101213.66;5025222;28;20128;-73
2023/04/21 03:10:21;;;;;;;19.35;14.25;;;;;;;10.12;74.82;101219.78;5008984;28;20070;-73
2023/04/21 03:12:48;;;;;;;27.08;14.98;;;;;;;10.14;74.47;101213.53;5008689;28;20057;-73
2023/04/21 03:15:15;;;;;;;20.48;14.98;;;;;;;10.12;74.39;101209.25;5031226;28;20104;-75
2023/04/21 03:17:43;;;;;;;23.08;14.55;;;;;;;10.07;74.63;101214.72;4996382;28;20052;-73
2023/04/21 03:20:11;;;;;;;26.45;15.25;;;;;;;10.03;74.54;101207.91;5032503;28;20421;-74
2023/04/21 03:22:39;;;;;;;23.52;14.10;;;;;;;9.99;74.78;101216.84;5032665;28;20470;-74
2023/04/21 03:25:07;;;;;;;23.60;12.98;;;;;;;9.97;75.01;101213.47;5013595;28;20037;-72
2023/04/21 03:27:34;;;;;;;22.60;12.80;;;;;;;9.94;74.61;101216.22;5038630;28;20076;-74
2023/04/21 03:30:02;;;;;;;16.58;10.07;;;;;;;9.96;74.68;101218.81;5030859;28;20321;-73
2023/04/21 03:32:30;;;;;;;18.42;11.10;;;;;;;9.98;74.70;101217.78;5018712;28;20080;-73
2023/04/21 03:34:57;;;;;;;16.70;9.75;;;;;;;9.98;74.16;101211.69;5038792;28;20122;-74
2023/04/21 03:37:24;;;;;;;22.55;11.02;;;;;;;9.93;74.25;101211.03;5030113;28;20083;-73
2023/04/21 03:39:52;;;;;;;15.80;10.27;;;;;;;9.88;74.81;101212.13;5015576;28;20037;-74
2023/04/21 03:42:19;;;;;;;17.20;10.95;;;;;;;9.86;74.53;101211.34;5028626;28;20096;-73
2023/04/21 03:44:46;;;;;;;16.92;9.68;;;;;;;9.83;74.41;101223.78;5025347;28;20856;-73
2023/04/21 03:47:16;;;;;;;15.93;10.52;;;;;;;9.82;74.47;101215.03;5013445;28;20059;-74
2023/04/21 03:49:43;;;;;;;16.13;10.13;;;;;;;9.79;74.53;101209.91;5017779;28;20057;-73
2023/04/21 03:52:10;;;;;;;16.98;10.57;;;;;;;9.78;74.95;101210.00;4997181;28;20061;-74
2023/04/21 03:54:38;;;;;;;14.02;9.95;;;;;;;9.80;74.90;101216.03;5022609;28;20136;-74
2023/04/21 03:57:05;;;;;;;19.38;10.63;;;;;;;9.74;74.89;101218.94;5019434;28;20145;-74
2023/04/21 03:59:33;;;;;;;15.40;10.02;;;;;;;9.74;75.19;101222.41;5028578;28;20046;-74
2023/04/21 04:02:01;;;;;;;21.58;10.80;;;;;;;9.73;74.71;101220.72;5015126;28;20068;-74
2023/04/21 04:04:28;;;;;;;17.67;10.38;;;;;;;9.72;75.26;101226.03;5035564;28;20170;-75
2023/04/21 04:06:56;;;;;;;17.75;11.05;;;;;;;9.69;75.14;101220.94;5026495;28;21670;-75
2023/04/21 04:09:23;;;;;;;16.65;10.35;;;;;;;9.66;75.23;101219.28;5017820;28;20125;-75
2023/04/21 04:12:06;;;;;;;15.50;10.88;;;;;;;9.63;75.43;101220.25;5017732;28;20061;-74
2023/04/21 04:14:36;;;;;;;18.30;10.63;;;;;;;9.66;75.22;101227.16;5026019;28;20107;-72
2023/04/21 04:17:03;;;;;;;18.90;11.85;;;;;;;9.70;75.50;101226.09;5031971;28;20055;-75
2023/04/21 04:19:31;;;;;;;22.58;11.25;;;;;;;9.73;75.16;101230.38;5034945;28;20052;-73
2023/04/21 04:21:59;;;;;;;17.83;10.63;;;;;;;9.76;74.85;101227.59;5010043;28;20528;-74
2023/04/21 04:24:27;;;;;;;20.67;10.57;;;;;;;9.77;74.87;101226.66;4993148;28;20501;-73
2023/04/21 04:26:56;;;;;;;18.17;11.18;;;;;;;9.74;75.04;101225.06;4988737;28;20049;-72
2023/04/21 04:29:24;;;;;;;15.35;10.23;;;;;;;9.74;75.43;101232.94;5025440;28;20519;-73
2023/04/21 04:31:51;;;;;;;20.30;10.45;;;;;;;9.76;75.18;101232.84;5000128;28;21664;-73
2023/04/21 04:34:19;;;;;;;17.23;10.88;;;;;;;9.78;75.07;101233.66;5001498;28;20057;-73
2023/04/21 04:36:50;;;;;;;17.35;11.43;;;;;;;9.77;75.00;101232.81;5011422;28;20069;-73
2023/04/21 04:39:17;;;;;;;18.35;10.35;;;;;;;9.81;75.01;101234.34;5015375;28;20164;-72
2023/04/21 04:41:45;;;;;;;17.05;11.38;;;;;;;9.79;74.58;101243.25;5008285;28;20050;-72
2023/04/21 04:44:15;;;;;;;20.77;10.65;;;;;;;9.84;74.82;101236.84;4990806;28;20049;-72
2023/04/21 04:46:44;;;;;;;19.17;11.85;;;;;;;9.85;74.64;101235.06;5029887;28;20056;-74
2023/04/21 04:49:12;;;;;;;16.73;10.13;;;;;;;9.88;74.88;101242.81;5025215;28;20449;-73
2023/04/21 04:51:39;;;;;;;17.92;11.48;;;;;;;9.87;74.65;101241.97;5022582;28;20132;-74
2023/04/21 04:54:08;;;;;;;17.38;10.30;;;;;;;9.85;74.68;101237.69;5027362;28;20053;-72
2023/04/21 04:56:36;;;;;;;14.90;10.75;;;;;;;9.90;74.11;101238.31;5027538;28;20548;-73
2023/04/21 04:59:03;;;;;;;17.05;11.15;;;;;;;9.89;74.38;101240.09;5008198;28;20073;-74
2023/04/21 05:01:30;;;;;;;20.20;10.65;;;;;;;9.90;73.70;101239.19;4993998;28;20076;-74
2023/04/21 05:03:58;;;;;;;16.10;11.20;;;;;;;9.92;73.58;101241.75;5026161;28;20110;-73
2023/04/21 05:06:27;;;;;;;15.18;10.63;;;;;;;9.98;73.59;101243.25;5003277;28;20092;-72
2023/04/21 05:08:55;;;;;;;16.38;10.20;;;;;;;10.02;73.53;101248.28;4993116;28;20049;-72
2023/04/21 05:11:22;;;;;;;13.13;9.43;;;;;;;10.02;73.49;101250.06;5018896;28;20053;-75
2023/04/21 05:13:49;;;;;;;14.50;11.27;;;;;;;10.07;73.13;101254.19;5005689;28;20050;-73
2023/04/21 05:16:16;;;;;;;18.05;12.52;;;;;;;10.09;72.99;101243.59;5005748;28;20099;-73
2023/04/21 05:18:45;;;;;;;15.82;10.93;;;;;;;10.12;73.00;101246.06;5011883;28;20049;-73
2023/04/21 05:21:12;;;;;;;17.42;10.73;;;;;;;10.15;72.63;101245.94;5009145;28;20455;-73
2023/04/21 05:23:40;;;;;;;16.75;10.70;;;;;;;10.21;72.82;101252.69;5007960;28;20153;-73
2023/04/21 05:26:07;;;;;;;17.02;10.57;;;;;;;10.23;72.72;101248.22;5014286;28;20042;-73
2023/04/21 05:28:35;;;;;;;17.13;9.65;;;;;;;10.25;72.30;101239.34;5001997;28;20088;-74
2023/04/21 05:31:02;;;;;;;15.65;10.23;;;;;;;10.28;72.34;101248.88;5029953;28;20140;-73
2023/04/21 05:33:30;;;;;;;20.63;11.07;;;;;;;10.34;72.14;101245.94;5006277;28;20057;-73
2023/04/21 05:35:58;;;;;;;15.63;11.02;;;;;;;10.40;71.74;101248.28;4993625;28;20087;-74
2023/04/21 05:38:26;;;;;;;16.23;10.30;;;;;;;10.41;71.61;101247.38;4988787;28;20049;-73
2023/04/21 05:40:54;;;;;;;16.98;11.15;;;;;;;10.46;71.69;101250.63;5003620;28;20108;-73
2023/04/21 05:43:22;;;;;;;20.75;10.85;;;;;;;10.51;71.22;101247.78;5008326;28;20140;-73
2023/04/21 05:45:49;;;;;;;20.30;11.48;;;;;;;10.55;71.08;101246.69;5027763;28;20057;-73
2023/04/21 05:48:16;;;;;;;21.63;10.48;;;;;;;10.60;71.00;101245.53;4995511;28;20149;-72
2023/04/21 05:50:44;;;;;;;18.63;10.95;;;;;;;10.68;70.66;101245.16;4995002;28;20053;-73
2023/04/21 05:53:13;;;;;;;18.20;11.65;;;;;;;10.74;70.40;101241.38;5008221;28;20053;-73
2023/04/21 05:55:40;;;;;;;20.73;11.68;;;;;;;10.82;70.43;101247.13;5009544;28;20128;-72
2023/04/21 05:58:08;;;;;;;22.77;11.25;;;;;;;10.92;70.20;101244.88;5020236;28;20049;-72
2023/04/21 06:00:35;;;;;;;19.85;11.18;;;;;;;10.96;69.44;101247.25;4985578;28;20360;-72
2023/04/21 06:03:03;;;;;;;17.50;9.95;;;;;;;11.01;69.30;101245.25;5024542;28;20083;-73
2023/04/21 06:05:30;;;;;;;14.43;9.48;;;;;;;11.10;69.14;101244.78;5019105;28;20136;-73
2023/04/21 06:07:58;;;;;;;21.50;11.48;;;;;;;11.21;69.08;101240.72;5016447;28;20064;-73
2023/04/21 06:10:26;;;;;;;16.80;10.63;;;;;;;11.31;68.28;101242.81;4993065;28;20055;-73
2023/04/21 06:12:54;;;;;;;15.23;10.70;;;;;;;11.37;67.87;101236.38;5006493;28;20137;-73
2023/04/21 06:15:21;;;;;;;15.50;11.02;;;;;;;11.46;67.71;101241.16;5028392;28;20148;-73
2023/04/21 06:17:53;;;;;;;16.35;11.10;;;;;;;11.52;67.11;101234.72;5023454;28;20067;-73
2023/04/21 06:20:20;;;;;;;19.13;10.85;;;;;;;11.59;67.04;101230.81;5020534;28;20052;-72
2023/04/21 06:22:47;;;;;;;17.38;11.80;;;;;;;11.68;66.74;101232.13;5035106;28;20059;-72
2023/04/21 06:25:15;;;;;;;16.52;10.10;;;;;;;11.80;66.20;101234.09;5035427;28;20053;-73
2023/04/21 06:27:44;;;;;;;15.57;11.00;;;;;;;11.91;66.27;101229.97;5026969;28;20050;-73
2023/04/21 06:30:11;;;;;;;18.50;11.10;;;;;;;12.00;65.11;101233.03;4994555;28;20071;-73
2023/04/21 06:32:39;;;;;;;15.15;11.02;;;;;;;12.09;65.43;101229.88;5008825;28;20073;-74
2023/04/21 06:35:07;;;;;;;14.88;10.75;;;;;;;12.16;65.03;101231.25;4980125;28;20389;-74
2023/04/21 06:37:34;;;;;;;20.58;10.98;;;;;;;12.29;64.72;101228.75;5026971;28;20075;-72
2023/04/21 06:40:02;;;;;;;15.10;10.20;;;;;;;12.39;64.88;101228.16;4997860;28;20137;-72
2023/04/21 06:42:30;;;;;;;17.00;9.95;;;;;;;12.55;64.01;101222.00;4998199;28;20111;-72
2023/04/21 06:44:57;;;;;;;16.55;10.13;;;;;;;12.67;63.30;101227.44;5023572;28;20736;-72
2023/04/21 06:47:25;;;;;;;12.70;10.30;;;;;;;12.77;62.62;101227.72;4998932;28;20108;-72
2023/04/21 06:49:52;;;;;;;14.70;10.00;;;;;;;12.90;62.92;101222.59;5011489;28;20132;-72
2023/04/21 06:52:19;;;;;;;14.13;8.55;;;;;;;13.02;62.13;101223.66;5024295;28;20135;-73
2023/04/21 06:54:46;;;;;;;15.65;9.43;;;;;;;13.18;61.93;101225.28;5027246;28;20046;-72
2023/04/21 06:57:14;;;;;;;18.92;10.48;;;;;;;13.29;61.16;101213.25;5023714;28;20045;-72
2023/04/21 06:59:41;;;;;;;20.42;9.95;;;;;;;13.35;60.28;101223.44;5020279;28;20133;-73
2023/04/21 07:02:08;;;;;;;14.15;9.85;;;;;;;13.38;59.53;101215.34;5009918;28;20133;-72
2023/04/21 07:04:36;;;;;;;17.45;9.63;;;;;;;13.47;59.36;101214.78;5008478;28;20050;-73
2023/04/21 07:07:04;;;;;;;19.38;9.38;;;;;;;13.60;59.18;101217.50;4975835;28;20525;-72
2023/04/21 07:09:32;;;;;;;12.27;9.45;;;;;;;13.71;58.81;101219.47;4978295;28;20552;-73
2023/04/21 07:12:00;;;;;;;20.58;11.07;;;;;;;13.82;58.65;101220.47;5001775;28;20055;-73
2023/04/21 07:14:28;;;;;;;19.80;9.82;;;;;;;13.99;58.90;101216.78;5013644;28;20144;-73
2023/04/21 07:16:56;;;;;;;15.13;9.40;;;;;;;14.14;58.46;101218.47;4995336;28;20058;-74
2023/04/21 07:19:23;;;;;;;15.60;9.40;;;;;;;14.28;58.25;101214.06;5011351;28;20186;-73
2023/04/21 07:21:50;;;;;;;16.55;10.00;;;;;;;14.37;57.61;101211.66;5011817;28;20089;-73
2023/04/21 07:24:21;;;;;;;16.25;9.40;;;;;;;14.45;57.04;101211.16;5016760;28;20113;-72
2023/04/21 07:26:48;;;;;;;17.30;9.93;;;;;;;14.48;56.34;101208.34;5033701;28;20107;-72
2023/04/21 07:29:15;;;;;;;18.70;10.40;;;;;;;14.60;56.05;101204.88;5000203;28;20057;-74
2023/04/21 07:31:43;;;;;;;14.88;9.77;;;;;;;14.73;55.91;101209.38;5017343;28;20046;-72
2023/04/21 07:34:10;;;;;;;16.30;9.65;;;;;;;14.87;56.30;101212.78;5033694;28;20041;-72
2023/04/21 07:36:37;;;;;;;14.20;9.35;;;;;;;14.97;55.40;101209.50;5011403;28;20069;-72
2023/04/21 07:39:05;;;;;;;15.55;9.85;;;;;;;15.07;55.78;101206.13;5009687;28;20054;-72
2023/04/21 07:41:32;;;;;;;12.40;8.35;;;;;;;15.19;55.04;101207.09;5004206;28;20140;-73
2023/04/21 07:44:00;;;;;;;13.65;8.98;;;;;;;15.26;54.90;101204.84;5030678;28;20137;-72
2023/04/21 07:46:31;;;;;;;17.60;9.60;;;;;;;15.33;54.29;101212.28;5017245;28;20056;-72
2023/04/21 07:48:59;;;;;;;13.15;9.30;;;;;;;15.41;53.75;101206.44;5022736;28;20592;-73
2023/04/21 07:51:30;;;;;;;17.00;8.95;;;;;;;15.49;54.20;101206.75;5001996;28;20072;-73
2023/04/21 07:53:58;;;;;;;17.98;9.57;;;;;;;15.60;53.93;101212.16;5015398;28;22186;-73
2023/04/21 07:56:25;;;;;;;14.60;9.40;;;;;;;15.69;52.94;101208.03;5038469;28;21823;-73
2023/04/21 07:58:52;;;;;;;15.45;9.25;;;;;;;15.80;53.18;101209.91;5010614;28;20615;-74
2023/04/21 08:01:20;;;;;;;19.15;9.48;;;;;;;15.89;52.80;101203.94;5013007;28;20037;-74
2023/04/21 08:03:48;;;;;;;18.83;8.80;;;;;;;15.99;52.69;101205.00;5017348;28;20068;-74
2023/04/21 08:06:15;;;;;;;14.60;9.30;;;;;;;16.12;51.96;101205.81;5015334;28;20149;-72
2023/04/21 08:08:43;;;;;;;14.13;8.68;;;;;;;16.23;51.29;101205.00;5014671;28;20058;-73
2023/04/21 08:11:10;;;;;;;14.48;9.48;;;;;;;16.32;51.93;101204.31;5000150;28;20056;-73
2023/04/21 08:13:38;;;;;;;14.52;9.07;;;;;;;16.48;51.87;101213.81;5013261;28;20053;-75
2023/04/21 08:16:05;;;;;;;17.25;8.57;;;;;;;16.62;51.65;101201.19;5015904;28;20533;-76
2023/04/21 08:18:32;;;;;;;12.55;8.63;;;;;;;16.66;51.34;101207.13;5015108;28;20071;-72
2023/04/21 08:21:01;;;;;;;15.80;8.70;;;;;;;16.77;51.20;101203.69;5009097;28;20140;-75
2023/04/21 08:23:29;;;;;;;13.27;7.25;;;;;;;16.88;51.11;101199.25;5035266;28;20081;-73
2023/04/21 08:25:59;;;;;;;15.77;8.40;;;;;;;16.96;50.52;101196.84;5017359;28;20128;-74
2023/04/21 08:28:26;;;;;;;18.60;8.23;;;;;;;17.01;50.08;101193.00;5000849;28;21120;-72
2023/04/21 08:30:53;;;;;;;10.63;7.57;;;;;;;17.01;49.61;101201.81;5017493;28;20136;-73
2023/04/21 08:33:21;;;;;;;11.90;8.32;;;;;;;17.11;49.82;101196.63;5021778;28;20055;-72
2023/04/21 08:35:48;;;;;;;17.40;8.73;;;;;;;17.23;49.30;101201.00;4984891;28;20660;-73
2023/04/21 08:38:32;;;;;;;11.27;7.93;;;;;;;17.37;49.37;101197.25;5019949;28;20132;-73
2023/04/21 08:40:59;;;;;;;10.75;7.07;;;;;;;17.45;49.07;101194.84;4997411;28;20539;-73
2023/04/21 08:43:28;;;;;;;9.40;7.53;;;;;;;17.45;48.90;101194.84;5012284;28;20458;-72
2023/04/21 08:45:55;;;;;;;13.75;8.25;;;;;;;17.58;48.96;101195.56;5009923;28;20084;-73
2023/04/21 08:48:23;;;;;;;14.70;8.40;;;;;;;17.63;48.07;101201.38;5007939;28;20045;-72
2023/04/21 08:50:52;;;;;;;14.40;8.05;;;;;;;17.77;48.82;101191.47;5011786;28;20045;-73
2023/04/21 08:53:26;;;;;;;15.68;6.95;;;;;;;17.89;48.16;101193.16;4994920;28;20136;-72
2023/04/21 08:55:55;;;;;;;14.25;7.40;;;;;;;17.94;48.18;101190.97;5012238;28;20065;-72
2023/04/21 08:58:37;;;;;;;17.63;8.20;;;;;;;18.07;48.23;101188.16;5009177;28;20085;-72
2023/04/21 09:01:05;;;;;;;16.52;7.60;;;;;;;18.18;47.66;101188.97;5008892;28;20052;-72
2023/04/21 09:03:32;;;;;;;30.60;8.50;;;;;;;18.28;47.95;101185.53;5004939;28;20054;-72
2023/04/21 09:06:06;;;;;;;12.77;6.55;;;;;;;18.34;47.41;101183.22;5025240;28;20088;-72
2023/04/21 09:08:38;;;;;;;13.02;6.93;;;;;;;18.44;47.25;101183.31;4991094;28;20070;-71
2023/04/21 09:11:06;;;;;;;13.00;7.13;;;;;;;18.51;47.41;101184.50;5012116;28;20136;-72
2023/04/21 09:13:36;;;;;;;9.27;6.82;;;;;;;18.63;47.58;101193.28;4976107;28;20073;-72
2023/04/21 09:16:15;;;;;;;12.48;6.85;;;;;;;18.68;46.52;101181.25;4997011;28;20137;-73
2023/04/21 09:18:43;;;;;;;10.55;6.68;;;;;;;18.87;46.79;101190.41;4983748;28;20383;-73
2023/04/21 09:21:15;;;;;;;13.45;7.28;;;;;;;18.87;46.15;101187.75;4994032;28;20063;-72
2023/04/21 09:23:48;;;;;;;13.55;6.82;;;;;;;18.93;45.40;101188.06;5013034;28;20209;-72
2023/04/21 09:26:17;;;;;;;11.60;6.88;;;;;;;18.97;45.62;101189.50;4978073;28;20085;-75
2023/04/21 09:28:46;;;;;;;12.23;7.13;;;;;;;19.04;45.13;101189.78;5013399;28;20045;-72
2023/04/21 09:31:16;;;;;;;14.68;6.63;;;;;;;19.16;45.07;101182.56;5023525;28;20112;-74
2023/04/21 09:33:49;;;;;;;11.23;6.68;;;;;;;19.29;44.88;101185.88;5009528;28;20109;-73
2023/04/21 09:36:21;;;;;;;13.70;7.03;;;;;;;19.39;44.86;101184.09;5009450;28;20160;-72
2023/04/21 09:38:54;;;;;;;12.60;6.72;;;;;;;19.47;44.87;101181.59;5027941;28;20113;-73
2023/04/21 09:41:43;;;;;;;10.63;6.70;;;;;;;19.54;44.41;101181.06;4993643;28;20688;-72
2023/04/21 09:44:10;;;;;;;19.27;6.88;;;;;;;19.54;43.63;101184.56;4984290;28;20050;-72
2023/04/21 09:46:38;;;;;;;15.82;8.05;;;;;;;19.56;42.80;101177.28;4988670;28;20085;-72
2023/04/21 09:49:05;;;;;;;10.23;6.55;;;;;;;19.57;42.86;101173.63;5000802;28;20145;-72
2023/04/21 09:51:33;;;;;;;13.00;6.60;;;;;;;19.71;43.21;101169.75;5010187;28;20141;-73
2023/04/21 09:54:18;;;;;;;16.02;6.53;;;;;;;19.80;42.87;101174.28;4993817;28;20148;-74
2023/04/21 09:57:02;;;;;;;13.23;6.47;;;;;;;19.83;42.57;101166.00;5008867;28;20134;-74
2023/04/21 09:59:37;;;;;;;10.40;5.82;;;;;;;19.91;42.69;101176.84;5012110;28;20753;-75
2023/04/21 10:02:05;;;;;;;;;;;;;;;19.97;42.75;101168.28;4991356;28;20137;-73
2023/04/21 10:04:34;;;;;;;10.35;6.60;;;;;;;20.09;42.49;101169.00;5007219;28;20308;-74
2023/04/21 10:07:02;;;;;;;11.18;6.05;;;;;;;20.21;42.04;101169.69;5030617;28;20127;-73
2023/04/21 10:09:34;;;;;;;13.20;5.88;;;;;;;20.31;42.13;101169.72;5003078;28;20142;-73
2023/04/21 10:12:03;;;;;;;9.88;5.38;;;;;;;20.36;41.68;101157.63;5002226;28;20604;-71
2023/04/21 10:14:31;;;;;;;9.07;5.97;;;;;;;20.41;41.62;101159.88;5022057;28;20516;-71
2023/04/21 10:17:06;;;;;;;10.02;6.03;;;;;;;20.43;40.92;101158.72;5024401;28;20081;-74
2023/04/21 10:19:38;;;;;;;13.40;5.57;;;;;;;20.54;39.77;101165.81;4997926;28;20144;-72
2023/04/21 10:22:09;;;;;;;9.75;5.35;;;;;;;20.53;37.91;101163.25;5030135;28;20588;-72
2023/04/21 10:24:41;;;;;;;7.82;5.78;;;;;;;20.54;37.85;101156.97;5012958;28;20068;-72
2023/04/21 10:27:11;;;;;;;10.00;6.00;;;;;;;20.56;37.56;101157.63;5027554;28;20536;-75
2023/04/21 10:29:42;;;;;;;7.78;5.60;;;;;;;20.48;37.59;101150.31;4992144;28;20076;-74
2023/04/21 10:32:40;;;;;;;11.15;6.25;;;;;;;20.61;37.57;101152.72;5012484;28;20116;-74
2023/04/21 10:35:28;;;;;;;8.07;5.65;;;;;;;20.71;37.94;101149.06;4989378;28;20046;-72
2023/04/21 10:37:57;;;;;;;9.10;5.55;;;;;;;20.87;37.26;101155.63;4998956;28;20060;-71
2023/04/21 10:40:35;;;;;;;8.82;5.53;;;;;;;20.93;36.82;101150.53;4999527;28;20436;-73
2023/04/21 10:43:05;;;;;;;9.95;5.65;;;;;;;20.97;35.58;101146.56;4998536;28;20136;-72
2023/04/21 10:45:32;;;;;;;9.40;5.50;;;;;;;20.99;35.32;101144.63;4958436;28;20100;-71
2023/04/21 10:48:02;;;;;;;7.78;5.40;;;;;;;21.07;35.41;101132.31;5024404;28;20050;-71
2023/04/21 10:50:30;;;;;;;9.73;5.47;;;;;;;21.20;36.13;101141.72;5021590;28;20116;-71
2023/04/21 10:53:06;;;;;;;9.85;5.78;;;;;;;21.35;36.04;101138.59;5003035;28;20628;-71
2023/04/21 10:55:33;;;;;;;8.50;5.45;;;;;;;21.54;35.96;101143.88;5006980;28;20049;-73
2023/04/21 10:58:07;;;;;;;10.60;5.20;;;;;;;21.66;35.45;101131.09;5000841;28;20061;-72
2023/04/21 11:00:37;;;;;;;8.18;4.97;;;;;;;21.77;35.63;101130.06;5010508;28;20083;-72
2023/04/21 11:03:05;;;;;;;9.88;5.47;;;;;;;21.84;34.87;101128.44;4982205;28;20111;-72
2023/04/21 11:05:39;;;;;;;8.40;5.13;;;;;;;21.91;34.90;101124.16;5023764;28;20049;-72
2023/04/21 11:08:15;;;;;;;9.02;5.63;;;;;;;22.03;35.65;101122.97;4987429;28;20053;-73
2023/04/21 11:10:46;;;;;;;8.30;5.53;;;;;;;22.05;34.82;101112.06;5004662;28;20075;-73
2023/04/21 11:13:14;;;;;;;13.07;5.28;;;;;;;22.11;34.32;101103.41;4971535;28;20156;-73
2023/04/21 11:15:54;;;;;;;10.75;5.57;;;;;;;22.29;34.53;101098.94;4975314;28;20696;-73
2023/04/21 11:18:40;;;;;;;6.65;4.85;;;;;;;22.43;34.66;101103.75;4989478;28;20045;-72
2023/04/21 11:21:21;;;;;;;11.68;5.38;;;;;;;22.59;35.55;101108.38;5006195;28;20057;-71
2023/04/21 11:23:51;;;;;;;12.98;5.55;;;;;;;22.65;33.62;101099.72;5015501;28;20713;-73
2023/04/21 11:26:30;;;;;;;7.45;5.00;;;;;;;22.68;33.77;101094.00;5006944;28;20229;-72